createdAt,value
2018-05-17T00:00:58.082Z,12.90
2018-05-17T00:03:25.905Z,12.80
2018-05-17T00:05:53.679Z,12.70
2018-05-17T00:08:20.739Z,12.70
2018-05-17T00:10:47.756Z,12.70
2018-05-17T00:13:14.803Z,12.60
2018-05-17T00:15:47.783Z,12.60
2018-05-17T00:18:14.827Z,12.60
2018-05-17T00:20:41.888Z,12.50
2018-05-17T00:23:08.919Z,12.50
2018-05-17T00:25:35.967Z,12.50
2018-05-17T00:28:03.009Z,12.50
2018-05-17T00:30:30.045Z,12.40
2018-05-17T00:32:57.852Z,12.30
2018-05-17T00:35:24.842Z,12.30
2018-05-17T00:37:52.608Z,12.30
2018-05-17T00:40:19.595Z,12.30
2018-05-17T00:42:46.644Z,12.30
2018-05-17T00:45:13.669Z,12.30
2018-05-17T00:47:40.706Z,12.20
2018-05-17T00:50:07.724Z,12.20
2018-05-17T00:52:34.745Z,12.20
2018-05-17T00:55:01.793Z,12.20
2018-05-17T00:57:28.811Z,12.10
2018-05-17T00:59:55.894Z,12.10
2018-05-17T01:02:23.014Z,12.10
2018-05-17T01:04:50.015Z,12.10
2018-05-17T01:07:17.789Z,12.10
2018-05-17T01:09:45.560Z,12.10
2018-05-17T01:12:13.364Z,12.00
2018-05-17T01:14:40.375Z,12.00
2018-05-17T01:17:07.408Z,12.00
2018-05-17T01:19:35.204Z,11.90
2018-05-17T01:22:02.283Z,11.90
2018-05-17T01:24:29.302Z,11.90
2018-05-17T01:26:56.316Z,11.90
2018-05-17T01:29:23.328Z,11.90
2018-05-17T01:31:50.351Z,11.80
2018-05-17T01:34:17.382Z,11.80
2018-05-17T01:37:02.774Z,11.80
2018-05-17T01:39:29.770Z,11.70
2018-05-17T01:41:57.585Z,11.70
2018-05-17T01:44:24.611Z,11.70
2018-05-17T01:46:51.648Z,11.70
2018-05-17T01:49:19.405Z,11.70
2018-05-17T01:51:47.212Z,11.70
2018-05-17T01:54:14.262Z,11.70
2018-05-17T01:56:41.256Z,11.70
2018-05-17T01:59:08.252Z,11.70
2018-05-17T02:01:36.145Z,11.70
2018-05-17T02:04:03.141Z,11.70
2018-05-17T02:06:30.172Z,11.70
2018-05-17T02:08:57.445Z,11.60
2018-05-17T02:11:24.513Z,11.70
2018-05-17T02:13:51.689Z,11.70
2018-05-17T02:16:18.775Z,11.70
2018-05-17T02:18:46.540Z,11.80
2018-05-17T02:21:14.296Z,11.70
2018-05-17T02:23:41.297Z,11.70
2018-05-17T02:26:08.365Z,11.70
2018-05-17T02:28:35.384Z,11.80
2018-05-17T02:31:02.453Z,11.70
2018-05-17T02:33:29.588Z,11.70
2018-05-17T02:35:56.586Z,11.70
2018-05-17T02:38:24.372Z,11.60
2018-05-17T02:40:51.398Z,11.60
2018-05-17T02:43:19.204Z,11.50
2018-05-17T02:45:46.233Z,11.50
2018-05-17T02:48:13.972Z,11.50
2018-05-17T02:50:40.983Z,11.50
2018-05-17T02:53:08.111Z,11.50
2018-05-17T02:55:35.153Z,11.50
2018-05-17T02:58:02.168Z,11.50
2018-05-17T03:00:29.208Z,11.40
2018-05-17T03:02:56.329Z,11.40
2018-05-17T03:05:23.357Z,11.40
2018-05-17T03:07:50.365Z,11.40
2018-05-17T03:10:17.383Z,11.40
2018-05-17T03:12:44.426Z,11.40
2018-05-17T03:15:11.433Z,11.40
2018-05-17T03:17:38.489Z,11.40
2018-05-17T03:20:05.504Z,11.40
2018-05-17T03:22:33.334Z,11.40
2018-05-17T03:25:00.348Z,11.40
2018-05-17T03:27:27.368Z,11.40
2018-05-17T03:29:55.769Z,11.40
2018-05-17T03:32:23.336Z,11.40
2018-05-17T03:34:50.347Z,11.30
2018-05-17T03:37:17.372Z,11.30
2018-05-17T03:39:45.599Z,11.40
2018-05-17T03:42:12.660Z,11.40
2018-05-17T03:44:40.405Z,11.40
2018-05-17T03:47:07.464Z,11.40
2018-05-17T03:49:34.500Z,11.40
2018-05-17T03:52:01.539Z,11.40
2018-05-17T03:54:28.598Z,11.40
2018-05-17T03:56:55.616Z,11.40
2018-05-17T03:59:23.387Z,11.40
2018-05-17T04:02:18.498Z,11.40
2018-05-17T04:06:55.194Z,11.50
2018-05-17T04:09:22.220Z,11.30
2018-05-17T04:11:49.342Z,11.30
2018-05-17T04:14:17.096Z,11.30
2018-05-17T04:16:44.083Z,11.30
2018-05-17T04:19:11.119Z,11.30
2018-05-17T04:21:39.219Z,11.30
2018-05-17T04:24:06.247Z,11.30
2018-05-17T04:26:33.340Z,11.30
2018-05-17T04:29:00.385Z,11.30
2018-05-17T04:31:27.416Z,11.30
2018-05-17T04:33:54.434Z,11.30
2018-05-17T04:36:21.474Z,11.30
2018-05-17T04:38:48.529Z,11.30
2018-05-17T04:41:15.543Z,11.40
2018-05-17T04:43:42.548Z,11.40
2018-05-17T04:46:09.572Z,11.50
2018-05-17T04:48:36.615Z,11.50
2018-05-17T04:51:03.680Z,11.50
2018-05-17T04:53:30.687Z,11.50
2018-05-17T04:55:57.712Z,11.50
2018-05-17T04:58:24.724Z,11.50
2018-05-17T05:00:51.748Z,11.60
2018-05-17T05:03:18.793Z,11.70
2018-05-17T05:05:46.548Z,11.80
2018-05-17T05:08:14.344Z,11.90
2018-05-17T05:10:41.359Z,11.80
2018-05-17T05:13:08.387Z,11.90
2018-05-17T05:15:35.404Z,12.10
2018-05-17T05:18:02.433Z,12.20
2018-05-17T05:20:29.464Z,12.20
2018-05-17T05:22:56.488Z,12.40
2018-05-17T05:25:23.558Z,12.50
2018-05-17T05:27:51.297Z,12.70
2018-05-17T05:30:19.065Z,12.80
2018-05-17T05:32:46.088Z,12.80
2018-05-17T05:35:13.113Z,12.90
2018-05-17T05:37:40.240Z,12.90
2018-05-17T05:40:07.184Z,13.00
2018-05-17T05:42:34.216Z,13.00
2018-05-17T05:45:01.244Z,13.10
2018-05-17T05:47:29.015Z,13.30
2018-05-17T05:49:56.769Z,13.40
2018-05-17T05:52:24.560Z,13.30
2018-05-17T05:54:51.783Z,13.30
2018-05-17T05:57:18.796Z,13.40
2018-05-17T05:59:45.775Z,13.50
2018-05-17T06:02:12.800Z,13.50
2018-05-17T06:04:39.829Z,13.60
2018-05-17T06:07:06.869Z,13.70
2018-05-17T06:09:33.888Z,13.80
2018-05-17T06:12:00.912Z,13.90
2018-05-17T06:14:28.679Z,14.10
2018-05-17T06:16:55.695Z,14.00
2018-05-17T06:19:22.708Z,14.10
2018-05-17T06:21:49.786Z,14.20
2018-05-17T06:24:17.656Z,14.30
2018-05-17T06:26:44.872Z,14.30
2018-05-17T06:29:12.665Z,14.40
2018-05-17T06:31:39.705Z,14.40
2018-05-17T06:34:06.705Z,14.40
2018-05-17T06:36:34.489Z,14.50
2018-05-17T06:39:01.528Z,14.60
2018-05-17T06:41:28.595Z,14.70
2018-05-17T06:43:55.619Z,14.70
2018-05-17T06:46:22.684Z,14.80
2018-05-17T06:48:50.720Z,14.80
2018-05-17T06:51:17.749Z,14.80
2018-05-17T06:53:44.727Z,15.00
2018-05-17T06:56:12.492Z,15.10
2018-05-17T06:58:40.236Z,15.20
2018-05-17T07:01:07.334Z,15.20
2018-05-17T07:03:34.316Z,15.30
2018-05-17T07:06:01.336Z,15.30
2018-05-17T07:08:28.367Z,15.40
2018-05-17T07:10:55.363Z,15.30
2018-05-17T07:13:22.372Z,15.50
2018-05-17T07:15:49.410Z,15.50
2018-05-17T07:18:16.472Z,15.60
2018-05-17T07:20:43.472Z,15.60
2018-05-17T07:23:11.228Z,15.80
2018-05-17T07:25:38.248Z,15.80
2018-05-17T07:28:05.240Z,15.80
2018-05-17T07:30:32.241Z,16.00
2018-05-17T07:32:59.260Z,16.00
2018-05-17T07:35:26.261Z,16.10
2018-05-17T07:37:54.023Z,16.30
2018-05-17T07:40:21.074Z,16.30
2018-05-17T07:42:48.121Z,16.40
2018-05-17T07:45:15.120Z,16.40
2018-05-17T07:47:42.128Z,16.50
2018-05-17T07:50:09.241Z,16.60
2018-05-17T07:52:36.373Z,16.70
2018-05-17T07:55:03.427Z,16.70
2018-05-17T07:57:30.436Z,16.80
2018-05-17T07:59:58.156Z,17.00
2018-05-17T08:02:25.308Z,17.00
2018-05-17T08:04:52.312Z,17.10
2018-05-17T08:07:19.361Z,17.10
2018-05-17T08:09:46.456Z,17.20
2018-05-17T08:12:13.481Z,17.20
2018-05-17T08:14:40.500Z,17.20
2018-05-17T08:17:07.485Z,17.20
2018-05-17T08:19:34.505Z,17.30
2018-05-17T08:22:01.558Z,17.30
2018-05-17T08:24:28.569Z,17.30
2018-05-17T08:26:55.617Z,17.30
2018-05-17T08:29:22.632Z,17.40
2018-05-17T08:31:49.685Z,17.40
2018-05-17T08:34:16.684Z,17.50
2018-05-17T08:36:43.769Z,17.50
2018-05-17T08:39:11.232Z,17.60
2018-05-17T08:41:38.332Z,17.60
2018-05-17T08:44:05.380Z,17.70
2018-05-17T08:46:32.385Z,17.80
2018-05-17T08:48:59.411Z,17.80
2018-05-17T08:51:26.437Z,17.80
2018-05-17T08:53:53.444Z,17.80
2018-05-17T08:56:21.240Z,17.90
2018-05-17T08:58:48.253Z,17.90
2018-05-17T09:01:15.260Z,18.00
2018-05-17T09:03:43.020Z,18.20
2018-05-17T09:06:10.095Z,18.20
2018-05-17T09:08:37.859Z,18.30
2018-05-17T09:11:05.613Z,18.40
2018-05-17T09:13:32.628Z,18.40
2018-05-17T09:15:59.660Z,18.50
2018-05-17T09:18:26.659Z,18.30
2018-05-17T09:20:53.922Z,18.30
2018-05-17T09:23:21.193Z,18.50
2018-05-17T09:25:48.393Z,18.60
2018-05-17T09:28:15.589Z,18.60
2018-05-17T09:30:42.652Z,18.60
2018-05-17T09:33:09.704Z,18.60
2018-05-17T09:35:36.785Z,18.60
2018-05-17T09:38:04.780Z,18.60
2018-05-17T09:40:32.045Z,18.60
2018-05-17T09:42:59.829Z,18.70
2018-05-17T09:45:26.833Z,18.70
2018-05-17T09:47:53.965Z,18.80
2018-05-17T09:50:20.989Z,19.00
2018-05-17T09:52:48.012Z,19.10
2018-05-17T09:55:15.043Z,19.20
2018-05-17T09:57:42.797Z,19.30
2018-05-17T10:00:09.844Z,19.30
2018-05-17T10:02:36.901Z,19.40
2018-05-17T10:05:04.653Z,19.40
2018-05-17T10:07:31.670Z,19.30
2018-05-17T10:09:58.684Z,19.40
2018-05-17T10:12:26.427Z,19.40
2018-05-17T10:14:54.181Z,19.40
2018-05-17T10:17:21.941Z,19.50
2018-05-17T10:19:49.709Z,19.50
2018-05-17T10:22:17.476Z,19.60
2018-05-17T10:24:45.243Z,19.70
2018-05-17T10:27:15.872Z,19.80
2018-05-17T10:29:44.451Z,19.90
2018-05-17T10:32:13.153Z,19.90
2018-05-17T10:34:40.899Z,20.20
2018-05-17T10:37:07.921Z,20.20
2018-05-17T10:39:34.924Z,20.30
2018-05-17T10:42:01.946Z,20.30
2018-05-17T10:44:29.703Z,20.50
2018-05-17T10:46:56.703Z,20.40
2018-05-17T10:49:23.718Z,20.50
2018-05-17T10:51:51.470Z,20.80
2018-05-17T10:54:18.500Z,20.70
2018-05-17T10:56:45.521Z,20.90
2018-05-17T10:59:12.568Z,21.00
2018-05-17T11:01:39.593Z,21.10
2018-05-17T11:04:06.637Z,21.20
2018-05-17T11:06:33.655Z,21.20
2018-05-17T11:09:01.435Z,21.20
2018-05-17T11:11:28.457Z,21.10
2018-05-17T11:16:29.292Z,21.10
2018-05-17T11:18:56.320Z,21.00
2018-05-17T11:21:23.347Z,21.00
2018-05-17T11:23:50.357Z,21.00
2018-05-17T11:26:18.110Z,21.00
2018-05-17T11:28:45.876Z,21.00
2018-05-17T11:31:12.933Z,20.90
2018-05-17T11:33:40.116Z,20.90
2018-05-17T11:36:07.134Z,20.60
2018-05-17T11:38:34.905Z,20.70
2018-05-17T11:41:02.697Z,20.90
2018-05-17T11:43:29.696Z,20.90
2018-05-17T11:45:56.718Z,21.10
2018-05-17T11:48:23.741Z,21.10
2018-05-17T11:50:51.489Z,21.30
2018-05-17T11:53:18.520Z,21.30
2018-05-17T11:55:46.264Z,21.30
2018-05-17T11:58:14.066Z,21.30
2018-05-17T12:00:41.065Z,21.20
2018-05-17T12:03:08.076Z,21.20
2018-05-17T12:05:35.152Z,21.10
2018-05-17T12:08:02.178Z,21.10
2018-05-17T12:10:29.196Z,21.10
2018-05-17T12:12:56.244Z,21.10
2018-05-17T12:15:23.971Z,21.20
2018-05-17T12:17:50.991Z,21.20
2018-05-17T12:20:17.984Z,21.20
2018-05-17T12:22:45.744Z,21.30
2018-05-17T12:25:13.517Z,21.30
2018-05-17T12:27:41.264Z,21.30
2018-05-17T12:30:08.269Z,21.30
2018-05-17T12:32:35.284Z,21.30
2018-05-17T12:35:02.892Z,21.40
2018-05-17T12:37:29.924Z,21.50
2018-05-17T12:39:56.964Z,21.50
2018-05-17T12:42:24.014Z,21.60
2018-05-17T12:44:51.061Z,21.90
2018-05-17T12:47:18.064Z,22.00
2018-05-17T12:49:45.285Z,22.10
2018-05-17T12:52:12.296Z,22.20
2018-05-17T12:54:39.329Z,22.30
2018-05-17T12:57:06.356Z,22.20
2018-05-17T12:59:33.377Z,22.20
2018-05-17T13:02:00.439Z,22.20
2018-05-17T13:04:28.189Z,22.00
2018-05-17T13:06:55.267Z,22.00
2018-05-17T13:09:22.281Z,21.90
2018-05-17T13:11:49.340Z,22.00
2018-05-17T13:14:16.450Z,21.90
2018-05-17T13:16:44.240Z,21.80
2018-05-17T13:19:11.253Z,21.70
2018-05-17T13:21:38.278Z,21.90
2018-05-17T13:24:05.289Z,22.10
2018-05-17T13:26:32.540Z,22.20
2018-05-17T13:28:59.564Z,22.50
2018-05-17T13:31:26.564Z,22.70
2018-05-17T13:33:53.960Z,22.70
2018-05-17T13:36:20.977Z,23.10
2018-05-17T13:38:48.009Z,23.20
2018-05-17T13:41:15.064Z,23.40
2018-05-17T13:43:42.097Z,23.70
2018-05-17T13:46:09.924Z,23.40
2018-05-17T13:48:36.949Z,23.40
2018-05-17T13:51:10.987Z,23.00
2018-05-17T13:53:38.023Z,23.20
2018-05-17T13:56:05.056Z,23.40
2018-05-17T13:58:32.432Z,23.50
2018-05-17T14:00:59.517Z,23.50
2018-05-17T14:03:27.280Z,23.50
2018-05-17T14:05:55.204Z,23.40
2018-05-17T14:08:22.368Z,23.40
2018-05-17T14:10:50.248Z,24.00
2018-05-17T14:13:18.024Z,24.00
2018-05-17T14:15:45.021Z,24.00
2018-05-17T14:18:12.041Z,24.10
2018-05-17T14:20:39.767Z,23.80
2018-05-17T14:23:06.792Z,23.80
2018-05-17T14:25:33.996Z,23.50
2018-05-17T14:28:01.048Z,23.30
2018-05-17T14:30:28.096Z,23.30
2018-05-17T14:32:55.366Z,23.20
2018-05-17T14:35:22.488Z,22.60
2018-05-17T14:37:50.249Z,22.70
2018-05-17T14:40:32.125Z,22.70
2018-05-17T14:43:02.712Z,22.50
2018-05-17T14:45:29.991Z,22.40
2018-05-17T14:48:00.951Z,22.50
2018-05-17T14:50:28.745Z,22.50
2018-05-17T14:52:55.781Z,22.50
2018-05-17T14:55:22.763Z,22.60
2018-05-17T14:57:49.808Z,22.60
2018-05-17T15:00:16.865Z,22.60
2018-05-17T15:02:43.901Z,22.60
2018-05-17T15:05:10.991Z,22.60
2018-05-17T15:07:37.994Z,22.60
2018-05-17T15:10:05.045Z,22.50
2018-05-17T15:12:32.094Z,22.50
2018-05-17T15:14:59.175Z,22.40
2018-05-17T15:17:26.186Z,22.30
2018-05-17T15:19:53.205Z,22.30
2018-05-17T15:22:20.989Z,22.20
2018-05-17T15:24:48.017Z,22.20
2018-05-17T15:27:15.800Z,22.10
2018-05-17T15:29:42.865Z,22.10
2018-05-17T15:32:09.911Z,22.00
2018-05-17T15:34:36.912Z,22.00
2018-05-17T15:37:04.147Z,21.90
2018-05-17T15:39:31.147Z,21.80
2018-05-17T15:41:58.167Z,21.80
2018-05-17T15:44:25.937Z,21.80
2018-05-17T15:46:53.341Z,21.80
2018-05-17T15:49:20.392Z,21.80
2018-05-17T15:51:47.416Z,21.60
2018-05-17T15:54:14.489Z,21.00
2018-05-17T15:56:41.513Z,20.80
2018-05-17T15:59:08.541Z,20.90
2018-05-17T16:01:35.581Z,20.90
2018-05-17T16:04:02.595Z,20.60
2018-05-17T16:06:30.487Z,20.70
2018-05-17T16:08:57.456Z,20.70
2018-05-17T16:11:24.777Z,20.50
2018-05-17T16:13:51.892Z,20.40
2018-05-17T16:16:18.996Z,20.50
2018-05-17T16:18:46.040Z,20.40
2018-05-17T16:21:13.053Z,20.20
2018-05-17T16:23:40.097Z,20.20
2018-05-17T16:26:07.140Z,20.40
2018-05-17T16:28:34.157Z,20.40
2018-05-17T16:31:01.198Z,20.30
2018-05-17T16:33:28.367Z,20.50
2018-05-17T16:35:56.244Z,20.70
2018-05-17T16:38:23.405Z,20.70
2018-05-17T16:40:50.485Z,20.80
2018-05-17T16:43:18.325Z,20.60
2018-05-17T16:45:46.188Z,20.50
2018-05-17T16:48:13.258Z,20.50
2018-05-17T16:50:40.208Z,20.50
2018-05-17T16:53:07.333Z,20.50
2018-05-17T16:55:34.299Z,20.50
2018-05-17T16:58:01.372Z,20.40
2018-05-17T17:00:28.560Z,20.30
2018-05-17T17:02:55.750Z,20.30
2018-05-17T17:05:22.801Z,20.20
2018-05-17T17:07:49.815Z,20.10
2018-05-17T17:10:16.828Z,20.30
2018-05-17T17:12:43.875Z,20.30
2018-05-17T17:15:11.601Z,20.30
2018-05-17T17:17:38.631Z,20.30
2018-05-17T17:20:05.640Z,20.30
2018-05-17T17:22:32.857Z,20.20
2018-05-17T17:25:00.901Z,20.00
2018-05-17T17:27:29.180Z,20.10
2018-05-17T17:29:56.933Z,20.00
2018-05-17T17:32:23.959Z,20.00
2018-05-17T17:34:51.013Z,20.00
2018-05-17T17:37:18.053Z,19.90
2018-05-17T17:39:45.095Z,19.90
2018-05-17T17:42:12.108Z,19.80
2018-05-17T17:44:39.147Z,19.80
2018-05-17T17:47:06.869Z,19.60
2018-05-17T17:49:35.230Z,19.60
2018-05-17T17:52:02.993Z,19.60
2018-05-17T17:54:30.736Z,19.40
2018-05-17T17:56:57.770Z,19.40
2018-05-17T17:59:25.504Z,19.30
2018-05-17T18:01:52.500Z,19.30
2018-05-17T18:04:19.539Z,19.20
2018-05-17T18:06:46.751Z,19.10
2018-05-17T18:09:14.085Z,19.10
2018-05-17T18:11:41.897Z,19.00
2018-05-17T18:14:08.958Z,18.90
2018-05-17T18:16:36.089Z,18.90
2018-05-17T18:19:03.159Z,18.80
2018-05-17T18:21:30.401Z,18.70
2018-05-17T18:23:57.478Z,18.70
2018-05-17T18:26:24.697Z,18.60
2018-05-17T18:28:51.749Z,18.60
2018-05-17T18:31:18.753Z,18.50
2018-05-17T18:33:47.606Z,18.40
2018-05-17T18:36:14.696Z,18.40
2018-05-17T18:38:41.775Z,18.30
2018-05-17T18:41:08.835Z,18.20
2018-05-17T18:43:36.318Z,18.10
2018-05-17T18:46:03.375Z,18.00
2018-05-17T18:48:30.393Z,18.00
2018-05-17T18:50:57.659Z,17.90
2018-05-17T18:53:24.752Z,17.90
2018-05-17T18:55:52.514Z,17.80
2018-05-17T18:58:21.413Z,17.80
2018-05-17T19:00:48.449Z,17.70
2018-05-17T19:03:15.655Z,17.70
2018-05-17T19:05:42.672Z,17.60
2018-05-17T19:08:09.737Z,17.60
2018-05-17T19:10:36.803Z,17.50
2018-05-17T19:13:03.994Z,17.50
2018-05-17T19:15:31.188Z,17.40
2018-05-17T19:17:58.255Z,17.40
2018-05-17T19:20:25.304Z,17.40
2018-05-17T19:22:52.389Z,17.30
2018-05-17T19:25:20.389Z,17.30
2018-05-17T19:27:47.956Z,17.30
2018-05-17T19:30:14.990Z,17.20
2018-05-17T19:32:42.909Z,17.10
2018-05-17T19:35:10.037Z,17.10
2018-05-17T19:37:37.029Z,17.10
2018-05-17T19:40:05.185Z,17.00
2018-05-17T19:42:32.305Z,17.00
2018-05-17T19:44:59.424Z,17.00
2018-05-17T19:47:26.608Z,16.90
2018-05-17T19:49:53.656Z,16.90
2018-05-17T19:52:21.127Z,16.90
2018-05-17T19:54:48.205Z,16.90
2018-05-17T19:57:16.085Z,16.80
2018-05-17T19:59:43.281Z,16.80
2018-05-17T20:02:11.229Z,16.70
2018-05-17T20:04:39.583Z,16.70
2018-05-17T20:07:07.491Z,16.70
2018-05-17T20:09:34.742Z,16.60
2018-05-17T20:12:01.982Z,16.70
2018-05-17T20:14:29.016Z,16.70
2018-05-17T20:16:57.273Z,16.60
2018-05-17T20:19:27.138Z,16.60
2018-05-17T20:21:55.008Z,16.50
2018-05-17T20:24:22.873Z,16.50
2018-05-17T20:26:49.913Z,16.50
2018-05-17T20:29:17.049Z,16.50
2018-05-17T20:31:46.210Z,16.50
2018-05-17T20:34:13.912Z,16.40
2018-05-17T20:36:41.188Z,16.50
2018-05-17T20:39:09.221Z,16.40
2018-05-17T20:41:36.290Z,16.40
2018-05-17T20:44:03.409Z,16.30
2018-05-17T20:46:30.816Z,16.40
2018-05-17T20:48:57.838Z,16.30
2018-05-17T20:51:25.085Z,16.30
2018-05-17T20:53:52.118Z,16.40
2018-05-17T20:56:19.868Z,16.40
2018-05-17T20:58:47.009Z,16.30
2018-05-17T21:01:14.783Z,16.30
2018-05-17T21:03:41.772Z,16.30
2018-05-17T21:06:09.081Z,16.30
2018-05-17T21:08:36.869Z,16.30
2018-05-17T21:11:04.671Z,16.30
2018-05-17T21:13:31.850Z,16.20
2018-05-17T21:15:58.977Z,16.20
2018-05-17T21:18:26.290Z,16.20
2018-05-17T21:20:53.489Z,16.20
2018-05-17T21:23:20.521Z,16.10
2018-05-17T21:25:47.651Z,16.00
2018-05-17T21:28:14.740Z,16.00
2018-05-17T21:30:41.780Z,16.00
2018-05-17T21:33:08.989Z,16.00
2018-05-17T21:35:36.139Z,15.90
2018-05-17T21:38:03.177Z,15.90
2018-05-17T21:40:30.977Z,15.80
2018-05-17T21:42:58.012Z,15.80
2018-05-17T21:45:25.040Z,15.80
2018-05-17T21:47:52.099Z,15.80
2018-05-17T21:50:19.360Z,15.70
2018-05-17T21:52:46.527Z,15.60
2018-05-17T21:55:13.574Z,15.60
2018-05-17T21:57:40.644Z,15.70
2018-05-17T22:00:07.745Z,15.70
2018-05-17T22:02:34.844Z,15.60
2018-05-17T22:05:02.654Z,15.60
2018-05-17T22:07:29.833Z,15.60
2018-05-17T22:09:56.940Z,15.60
2018-05-17T22:12:24.145Z,15.60
2018-05-17T22:14:51.222Z,15.50
2018-05-17T22:17:18.475Z,15.40
2018-05-17T22:19:45.573Z,15.40
2018-05-17T22:22:12.599Z,15.30
2018-05-17T22:24:39.621Z,15.40
2018-05-17T22:27:07.373Z,15.30
2018-05-17T22:29:34.398Z,15.30
2018-05-17T22:32:01.427Z,15.30
2018-05-17T22:34:28.457Z,15.30
2018-05-17T22:36:55.457Z,15.20
2018-05-17T22:39:22.480Z,15.20
2018-05-17T22:41:49.516Z,15.20
2018-05-17T22:44:16.683Z,15.10
2018-05-17T22:46:43.720Z,15.10
2018-05-17T22:49:11.560Z,15.10
2018-05-17T22:51:38.909Z,15.20
2018-05-17T22:54:05.949Z,15.20
2018-05-17T22:56:52.294Z,15.20
2018-05-17T22:59:19.352Z,15.20
2018-05-17T23:01:46.373Z,15.20
2018-05-17T23:04:13.396Z,15.20
2018-05-17T23:06:40.675Z,15.20
2018-05-17T23:09:07.789Z,15.30
2018-05-17T23:11:34.829Z,15.30
2018-05-17T23:14:01.825Z,15.20
2018-05-17T23:16:28.801Z,15.20
2018-05-17T23:18:55.831Z,15.20
2018-05-17T23:21:22.860Z,15.30
2018-05-17T23:23:49.928Z,15.30
2018-05-17T23:26:16.990Z,15.30
2018-05-17T23:28:44.076Z,15.30
2018-05-17T23:31:11.801Z,15.30
2018-05-17T23:33:38.814Z,15.30
2018-05-17T23:36:05.829Z,15.40
2018-05-17T23:38:33.566Z,15.30
2018-05-17T23:41:18.922Z,15.30
2018-05-17T23:43:45.948Z,15.30
2018-05-17T23:46:12.969Z,15.30
2018-05-17T23:48:39.996Z,15.30
2018-05-17T23:51:07.752Z,15.20
2018-05-17T23:53:34.768Z,15.20
2018-05-17T23:56:01.773Z,15.20
2018-05-17T23:58:29.504Z,15.10
